sensor_id;sensor_type;location;lat;lon;timestamp;P1;durP1;ratioP1;P2;durP2;ratioP2
19024;SDS011;9645;51.448;6.260;2024-03-07T00:00:31;93.15;;;27.70;;
19024;SDS011;9645;51.448;6.260;2024-03-07T00:02:58;86.18;;;27.63;;
19024;SDS011;9645;51.448;6.260;2024-03-07T00:05:25;82.38;;;26.33;;
19024;SDS011;9645;51.448;6.260;2024-03-07T00:07:53;79.65;;;25.95;;
19024;SDS011;9645;51.448;6.260;2024-03-07T00:10:21;102.63;;;29.27;;
19024;SDS011;9645;51.448;6.260;2024-03-07T00:12:48;81.15;;;26.30;;
19024;SDS011;9645;51.448;6.260;2024-03-07T00:15:16;84.60;;;25.90;;
19024;SDS011;9645;51.448;6.260;2024-03-07T00:17:43;97.03;;;29.05;;
19024;SDS011;9645;51.448;6.260;2024-03-07T00:20:11;88.10;;;26.52;;
19024;SDS011;9645;51.448;6.260;2024-03-07T00:22:40;83.93;;;26.15;;
19024;SDS011;9645;51.448;6.260;2024-03-07T00:25:07;86.40;;;26.90;;
19024;SDS011;9645;51.448;6.260;2024-03-07T00:27:36;94.82;;;27.45;;
19024;SDS011;9645;51.448;6.260;2024-03-07T00:30:03;100.78;;;27.67;;
19024;SDS011;9645;51.448;6.260;2024-03-07T00:32:35;87.95;;;26.90;;
19024;SDS011;9645;51.448;6.260;2024-03-07T00:35:04;83.70;;;27.77;;
19024;SDS011;9645;51.448;6.260;2024-03-07T00:37:33;89.13;;;27.42;;
19024;SDS011;9645;51.448;6.260;2024-03-07T00:40:01;85.95;;;28.25;;
19024;SDS011;9645;51.448;6.260;2024-03-07T00:42:28;103.20;;;29.55;;
19024;SDS011;9645;51.448;6.260;2024-03-07T00:44:55;89.95;;;25.95;;
19024;SDS011;9645;51.448;6.260;2024-03-07T00:47:22;100.18;;;28.65;;
19024;SDS011;9645;51.448;6.260;2024-03-07T00:49:50;93.35;;;28.25;;
19024;SDS011;9645;51.448;6.260;2024-03-07T00:52:17;94.07;;;28.38;;
19024;SDS011;9645;51.448;6.260;2024-03-07T00:54:44;92.88;;;30.38;;
19024;SDS011;9645;51.448;6.260;2024-03-07T00:57:13;95.65;;;30.00;;
19024;SDS011;9645;51.448;6.260;2024-03-07T00:59:40;87.47;;;28.45;;
19024;SDS011;9645;51.448;6.260;2024-03-07T01:02:07;102.60;;;28.30;;
19024;SDS011;9645;51.448;6.260;2024-03-07T01:04:34;94.70;;;30.48;;
19024;SDS011;9645;51.448;6.260;2024-03-07T01:07:03;98.93;;;31.02;;
19024;SDS011;9645;51.448;6.260;2024-03-07T01:09:30;92.47;;;29.65;;
19024;SDS011;9645;51.448;6.260;2024-03-07T01:11:57;106.10;;;29.52;;
19024;SDS011;9645;51.448;6.260;2024-03-07T01:14:24;90.03;;;27.50;;
19024;SDS011;9645;51.448;6.260;2024-03-07T01:16:52;96.95;;;30.10;;
19024;SDS011;9645;51.448;6.260;2024-03-07T01:19:19;91.40;;;30.15;;
19024;SDS011;9645;51.448;6.260;2024-03-07T01:21:46;84.60;;;28.50;;
19024;SDS011;9645;51.448;6.260;2024-03-07T01:24:14;82.15;;;26.40;;
19024;SDS011;9645;51.448;6.260;2024-03-07T01:26:43;116.05;;;29.65;;
19024;SDS011;9645;51.448;6.260;2024-03-07T01:29:09;97.68;;;29.83;;
19024;SDS011;9645;51.448;6.260;2024-03-07T01:31:36;99.03;;;28.75;;
19024;SDS011;9645;51.448;6.260;2024-03-07T01:34:03;91.82;;;29.23;;
19024;SDS011;9645;51.448;6.260;2024-03-07T01:36:30;101.40;;;28.85;;
19024;SDS011;9645;51.448;6.260;2024-03-07T01:38:57;86.20;;;28.70;;
19024;SDS011;9645;51.448;6.260;2024-03-07T01:41:26;99.72;;;29.70;;
19024;SDS011;9645;51.448;6.260;2024-03-07T01:43:52;101.53;;;30.05;;
19024;SDS011;9645;51.448;6.260;2024-03-07T01:46:19;92.53;;;29.63;;
19024;SDS011;9645;51.448;6.260;2024-03-07T01:48:46;96.70;;;29.30;;
19024;SDS011;9645;51.448;6.260;2024-03-07T01:51:14;95.85;;;31.38;;
19024;SDS011;9645;51.448;6.260;2024-03-07T01:53:41;94.38;;;28.60;;
19024;SDS011;9645;51.448;6.260;2024-03-07T01:56:08;84.90;;;27.05;;
19024;SDS011;9645;51.448;6.260;2024-03-07T01:58:37;79.78;;;28.00;;
19024;SDS011;9645;51.448;6.260;2024-03-07T02:01:05;108.40;;;29.63;;
19024;SDS011;9645;51.448;6.260;2024-03-07T02:03:32;103.63;;;30.70;;
19024;SDS011;9645;51.448;6.260;2024-03-07T02:06:01;93.78;;;26.02;;
19024;SDS011;9645;51.448;6.260;2024-03-07T02:08:28;104.15;;;28.42;;
19024;SDS011;9645;51.448;6.260;2024-03-07T02:10:57;93.82;;;28.45;;
19024;SDS011;9645;51.448;6.260;2024-03-07T02:13:24;103.55;;;30.13;;
19024;SDS011;9645;51.448;6.260;2024-03-07T02:15:52;90.32;;;29.70;;
19024;SDS011;9645;51.448;6.260;2024-03-07T02:18:19;92.95;;;28.35;;
19024;SDS011;9645;51.448;6.260;2024-03-07T02:20:48;93.15;;;30.02;;
19024;SDS011;9645;51.448;6.260;2024-03-07T02:23:15;88.63;;;28.90;;
19024;SDS011;9645;51.448;6.260;2024-03-07T02:25:42;93.18;;;28.40;;
19024;SDS011;9645;51.448;6.260;2024-03-07T02:28:09;112.72;;;31.00;;
19024;SDS011;9645;51.448;6.260;2024-03-07T02:30:36;92.70;;;29.95;;
19024;SDS011;9645;51.448;6.260;2024-03-07T02:33:04;98.05;;;29.90;;
19024;SDS011;9645;51.448;6.260;2024-03-07T02:35:32;89.35;;;29.42;;
19024;SDS011;9645;51.448;6.260;2024-03-07T02:38:02;102.22;;;30.30;;
19024;SDS011;9645;51.448;6.260;2024-03-07T02:40:30;109.88;;;29.10;;
19024;SDS011;9645;51.448;6.260;2024-03-07T02:42:57;96.97;;;30.17;;
19024;SDS011;9645;51.448;6.260;2024-03-07T02:45:24;127.38;;;32.05;;
19024;SDS011;9645;51.448;6.260;2024-03-07T02:47:52;103.28;;;31.98;;
19024;SDS011;9645;51.448;6.260;2024-03-07T02:50:19;87.88;;;30.05;;
19024;SDS011;9645;51.448;6.260;2024-03-07T02:52:48;99.28;;;29.77;;
19024;SDS011;9645;51.448;6.260;2024-03-07T02:55:16;93.97;;;31.02;;
19024;SDS011;9645;51.448;6.260;2024-03-07T02:57:44;93.35;;;28.95;;
19024;SDS011;9645;51.448;6.260;2024-03-07T03:00:11;98.20;;;32.83;;
19024;SDS011;9645;51.448;6.260;2024-03-07T03:02:51;95.15;;;31.13;;
19024;SDS011;9645;51.448;6.260;2024-03-07T03:05:18;93.30;;;28.83;;
19024;SDS011;9645;51.448;6.260;2024-03-07T03:07:46;93.32;;;29.73;;
19024;SDS011;9645;51.448;6.260;2024-03-07T03:10:21;95.40;;;31.02;;
19024;SDS011;9645;51.448;6.260;2024-03-07T03:12:51;94.72;;;28.83;;
19024;SDS011;9645;51.448;6.260;2024-03-07T03:15:20;103.80;;;32.88;;
19024;SDS011;9645;51.448;6.260;2024-03-07T03:17:47;92.07;;;30.13;;
19024;SDS011;9645;51.448;6.260;2024-03-07T03:20:14;100.38;;;32.55;;
19024;SDS011;9645;51.448;6.260;2024-03-07T03:22:49;104.95;;;30.35;;
19024;SDS011;9645;51.448;6.260;2024-03-07T03:25:20;98.65;;;29.30;;
19024;SDS011;9645;51.448;6.260;2024-03-07T03:27:48;89.10;;;29.85;;
19024;SDS011;9645;51.448;6.260;2024-03-07T03:30:15;115.47;;;32.10;;
19024;SDS011;9645;51.448;6.260;2024-03-07T03:32:43;105.65;;;29.88;;
19024;SDS011;9645;51.448;6.260;2024-03-07T03:35:12;97.13;;;30.52;;
19024;SDS011;9645;51.448;6.260;2024-03-07T03:37:39;106.03;;;30.33;;
19024;SDS011;9645;51.448;6.260;2024-03-07T03:40:08;105.30;;;32.10;;
19024;SDS011;9645;51.448;6.260;2024-03-07T03:42:38;114.68;;;31.83;;
19024;SDS011;9645;51.448;6.260;2024-03-07T03:45:06;98.07;;;32.30;;
19024;SDS011;9645;51.448;6.260;2024-03-07T03:47:34;99.90;;;30.77;;
19024;SDS011;9645;51.448;6.260;2024-03-07T03:50:02;98.75;;;30.50;;
19024;SDS011;9645;51.448;6.260;2024-03-07T03:52:30;111.47;;;31.05;;
19024;SDS011;9645;51.448;6.260;2024-03-07T03:54:57;102.40;;;31.83;;
19024;SDS011;9645;51.448;6.260;2024-03-07T03:57:25;98.85;;;29.30;;
19024;SDS011;9645;51.448;6.260;2024-03-07T03:59:54;82.05;;;29.08;;
19024;SDS011;9645;51.448;6.260;2024-03-07T04:02:21;90.63;;;30.63;;
19024;SDS011;9645;51.448;6.260;2024-03-07T04:04:48;95.20;;;29.00;;
19024;SDS011;9645;51.448;6.260;2024-03-07T04:07:16;93.97;;;29.05;;
19024;SDS011;9645;51.448;6.260;2024-03-07T04:09:44;92.32;;;29.52;;
19024;SDS011;9645;51.448;6.260;2024-03-07T04:12:11;97.95;;;30.23;;
19024;SDS011;9645;51.448;6.260;2024-03-07T04:14:40;98.78;;;28.15;;
19024;SDS011;9645;51.448;6.260;2024-03-07T04:17:09;106.18;;;29.33;;
19024;SDS011;9645;51.448;6.260;2024-03-07T04:19:38;91.18;;;27.92;;
19024;SDS011;9645;51.448;6.260;2024-03-07T04:22:06;89.68;;;29.38;;
19024;SDS011;9645;51.448;6.260;2024-03-07T04:24:34;88.43;;;28.10;;
19024;SDS011;9645;51.448;6.260;2024-03-07T04:27:01;84.22;;;31.10;;
19024;SDS011;9645;51.448;6.260;2024-03-07T04:29:30;98.43;;;30.13;;
19024;SDS011;9645;51.448;6.260;2024-03-07T04:31:57;94.22;;;30.75;;
19024;SDS011;9645;51.448;6.260;2024-03-07T04:34:25;94.18;;;29.80;;
19024;SDS011;9645;51.448;6.260;2024-03-07T04:36:53;92.72;;;29.48;;
19024;SDS011;9645;51.448;6.260;2024-03-07T04:39:20;86.90;;;29.27;;
19024;SDS011;9645;51.448;6.260;2024-03-07T04:41:53;98.38;;;29.33;;
19024;SDS011;9645;51.448;6.260;2024-03-07T04:44:20;92.72;;;29.92;;
19024;SDS011;9645;51.448;6.260;2024-03-07T04:46:47;98.53;;;31.65;;
19024;SDS011;9645;51.448;6.260;2024-03-07T04:49:16;93.05;;;29.70;;
19024;SDS011;9645;51.448;6.260;2024-03-07T04:51:44;101.28;;;29.55;;
19024;SDS011;9645;51.448;6.260;2024-03-07T04:54:11;98.90;;;29.13;;
19024;SDS011;9645;51.448;6.260;2024-03-07T04:56:39;91.18;;;28.75;;
19024;SDS011;9645;51.448;6.260;2024-03-07T04:59:06;87.68;;;28.40;;
19024;SDS011;9645;51.448;6.260;2024-03-07T05:01:33;97.53;;;30.60;;
19024;SDS011;9645;51.448;6.260;2024-03-07T05:04:00;96.20;;;29.63;;
19024;SDS011;9645;51.448;6.260;2024-03-07T05:06:28;103.43;;;32.92;;
19024;SDS011;9645;51.448;6.260;2024-03-07T05:09:00;111.65;;;31.77;;
19024;SDS011;9645;51.448;6.260;2024-03-07T05:11:28;95.38;;;30.80;;
19024;SDS011;9645;51.448;6.260;2024-03-07T05:13:55;92.00;;;30.40;;
19024;SDS011;9645;51.448;6.260;2024-03-07T05:16:22;100.20;;;30.60;;
19024;SDS011;9645;51.448;6.260;2024-03-07T05:18:49;85.18;;;28.52;;
19024;SDS011;9645;51.448;6.260;2024-03-07T05:21:17;94.47;;;29.75;;
19024;SDS011;9645;51.448;6.260;2024-03-07T05:24:01;89.25;;;28.45;;
19024;SDS011;9645;51.448;6.260;2024-03-07T05:26:29;97.78;;;29.67;;
19024;SDS011;9645;51.448;6.260;2024-03-07T05:28:59;81.75;;;27.48;;
19024;SDS011;9645;51.448;6.260;2024-03-07T05:31:28;103.03;;;30.40;;
19024;SDS011;9645;51.448;6.260;2024-03-07T05:33:55;95.50;;;29.83;;
19024;SDS011;9645;51.448;6.260;2024-03-07T05:36:22;88.50;;;28.55;;
19024;SDS011;9645;51.448;6.260;2024-03-07T05:38:49;95.53;;;28.20;;
19024;SDS011;9645;51.448;6.260;2024-03-07T05:41:18;94.60;;;28.67;;
19024;SDS011;9645;51.448;6.260;2024-03-07T05:43:45;87.88;;;28.65;;
19024;SDS011;9645;51.448;6.260;2024-03-07T05:46:12;93.40;;;28.92;;
19024;SDS011;9645;51.448;6.260;2024-03-07T05:48:39;100.90;;;30.00;;
19024;SDS011;9645;51.448;6.260;2024-03-07T05:51:06;90.90;;;28.60;;
19024;SDS011;9645;51.448;6.260;2024-03-07T05:53:35;95.95;;;28.95;;
19024;SDS011;9645;51.448;6.260;2024-03-07T05:56:02;105.55;;;30.10;;
19024;SDS011;9645;51.448;6.260;2024-03-07T05:58:32;92.78;;;27.05;;
19024;SDS011;9645;51.448;6.260;2024-03-07T06:00:59;97.15;;;30.92;;
19024;SDS011;9645;51.448;6.260;2024-03-07T06:03:26;92.13;;;29.08;;
19024;SDS011;9645;51.448;6.260;2024-03-07T06:05:53;90.35;;;30.38;;
19024;SDS011;9645;51.448;6.260;2024-03-07T06:08:21;90.70;;;30.40;;
19024;SDS011;9645;51.448;6.260;2024-03-07T06:10:54;100.32;;;30.40;;
19024;SDS011;9645;51.448;6.260;2024-03-07T06:13:23;73.70;;;26.10;;
19024;SDS011;9645;51.448;6.260;2024-03-07T06:15:51;91.03;;;27.38;;
19024;SDS011;9645;51.448;6.260;2024-03-07T06:18:18;93.20;;;30.00;;
19024;SDS011;9645;51.448;6.260;2024-03-07T06:20:45;100.10;;;28.83;;
19024;SDS011;9645;51.448;6.260;2024-03-07T06:23:13;99.97;;;29.25;;
19024;SDS011;9645;51.448;6.260;2024-03-07T06:25:42;86.25;;;27.85;;
19024;SDS011;9645;51.448;6.260;2024-03-07T06:28:15;90.55;;;30.45;;
19024;SDS011;9645;51.448;6.260;2024-03-07T06:30:43;77.22;;;27.65;;
19024;SDS011;9645;51.448;6.260;2024-03-07T06:33:14;95.10;;;28.75;;
19024;SDS011;9645;51.448;6.260;2024-03-07T06:35:41;92.70;;;28.95;;
19024;SDS011;9645;51.448;6.260;2024-03-07T06:38:09;86.22;;;28.40;;
19024;SDS011;9645;51.448;6.260;2024-03-07T06:40:37;96.00;;;28.92;;
19024;SDS011;9645;51.448;6.260;2024-03-07T06:43:05;91.88;;;30.48;;
19024;SDS011;9645;51.448;6.260;2024-03-07T06:45:32;78.55;;;27.70;;
19024;SDS011;9645;51.448;6.260;2024-03-07T06:48:00;98.47;;;28.27;;
19024;SDS011;9645;51.448;6.260;2024-03-07T06:50:28;102.65;;;30.83;;
19024;SDS011;9645;51.448;6.260;2024-03-07T06:52:55;94.03;;;30.10;;
19024;SDS011;9645;51.448;6.260;2024-03-07T06:55:22;108.78;;;30.40;;
19024;SDS011;9645;51.448;6.260;2024-03-07T06:57:49;88.53;;;30.80;;
19024;SDS011;9645;51.448;6.260;2024-03-07T07:00:16;96.90;;;32.95;;
19024;SDS011;9645;51.448;6.260;2024-03-07T07:02:44;111.72;;;34.17;;
19024;SDS011;9645;51.448;6.260;2024-03-07T07:05:12;113.35;;;33.95;;
19024;SDS011;9645;51.448;6.260;2024-03-07T07:07:42;95.18;;;30.95;;
19024;SDS011;9645;51.448;6.260;2024-03-07T07:10:09;88.25;;;28.25;;
19024;SDS011;9645;51.448;6.260;2024-03-07T07:12:41;83.95;;;28.05;;
19024;SDS011;9645;51.448;6.260;2024-03-07T07:15:09;74.97;;;28.38;;
19024;SDS011;9645;51.448;6.260;2024-03-07T07:17:40;70.63;;;24.67;;
19024;SDS011;9645;51.448;6.260;2024-03-07T07:20:10;67.18;;;26.35;;
19024;SDS011;9645;51.448;6.260;2024-03-07T07:22:40;80.78;;;26.20;;
19024;SDS011;9645;51.448;6.260;2024-03-07T07:25:08;77.00;;;25.50;;
19024;SDS011;9645;51.448;6.260;2024-03-07T07:27:39;77.53;;;25.65;;
19024;SDS011;9645;51.448;6.260;2024-03-07T07:30:07;68.15;;;24.95;;
19024;SDS011;9645;51.448;6.260;2024-03-07T07:32:35;74.05;;;25.45;;
19024;SDS011;9645;51.448;6.260;2024-03-07T07:35:02;65.78;;;24.73;;
19024;SDS011;9645;51.448;6.260;2024-03-07T07:37:30;73.10;;;24.98;;
19024;SDS011;9645;51.448;6.260;2024-03-07T07:39:59;71.47;;;26.02;;
19024;SDS011;9645;51.448;6.260;2024-03-07T07:42:26;73.50;;;25.73;;
19024;SDS011;9645;51.448;6.260;2024-03-07T07:44:53;66.30;;;24.02;;
19024;SDS011;9645;51.448;6.260;2024-03-07T07:47:20;66.40;;;25.70;;
19024;SDS011;9645;51.448;6.260;2024-03-07T07:49:47;71.22;;;26.48;;
19024;SDS011;9645;51.448;6.260;2024-03-07T07:52:13;68.43;;;24.58;;
19024;SDS011;9645;51.448;6.260;2024-03-07T07:54:42;73.85;;;26.38;;
19024;SDS011;9645;51.448;6.260;2024-03-07T07:57:10;58.00;;;23.42;;
19024;SDS011;9645;51.448;6.260;2024-03-07T07:59:37;69.22;;;24.08;;
19024;SDS011;9645;51.448;6.260;2024-03-07T08:02:05;60.28;;;23.95;;
19024;SDS011;9645;51.448;6.260;2024-03-07T08:04:32;56.10;;;22.40;;
19024;SDS011;9645;51.448;6.260;2024-03-07T08:06:59;58.60;;;23.13;;
19024;SDS011;9645;51.448;6.260;2024-03-07T08:09:26;54.20;;;22.83;;
19024;SDS011;9645;51.448;6.260;2024-03-07T08:11:53;53.70;;;22.70;;
19024;SDS011;9645;51.448;6.260;2024-03-07T08:14:21;49.40;;;22.80;;
19024;SDS011;9645;51.448;6.260;2024-03-07T08:16:48;50.87;;;23.00;;
19024;SDS011;9645;51.448;6.260;2024-03-07T08:19:16;54.27;;;23.87;;
19024;SDS011;9645;51.448;6.260;2024-03-07T08:21:43;49.93;;;22.03;;
19024;SDS011;9645;51.448;6.260;2024-03-07T08:24:10;47.93;;;21.13;;
19024;SDS011;9645;51.448;6.260;2024-03-07T08:26:37;51.93;;;22.90;;
19024;SDS011;9645;51.448;6.260;2024-03-07T08:29:09;53.73;;;23.43;;
19024;SDS011;9645;51.448;6.260;2024-03-07T08:31:39;45.50;;;22.00;;
19024;SDS011;9645;51.448;6.260;2024-03-07T08:34:06;56.40;;;23.87;;
19024;SDS011;9645;51.448;6.260;2024-03-07T08:36:33;49.13;;;22.33;;
19024;SDS011;9645;51.448;6.260;2024-03-07T08:39:01;50.50;;;22.40;;
19024;SDS011;9645;51.448;6.260;2024-03-07T08:41:29;43.40;;;22.30;;
19024;SDS011;9645;51.448;6.260;2024-03-07T08:44:01;48.30;;;22.77;;
19024;SDS011;9645;51.448;6.260;2024-03-07T08:46:28;55.40;;;24.07;;
19024;SDS011;9645;51.448;6.260;2024-03-07T08:48:57;49.80;;;22.73;;
19024;SDS011;9645;51.448;6.260;2024-03-07T08:51:24;47.17;;;23.00;;
19024;SDS011;9645;51.448;6.260;2024-03-07T08:53:51;41.70;;;21.07;;
19024;SDS011;9645;51.448;6.260;2024-03-07T08:56:17;42.87;;;22.70;;
19024;SDS011;9645;51.448;6.260;2024-03-07T08:58:44;58.23;;;23.23;;
19024;SDS011;9645;51.448;6.260;2024-03-07T09:01:12;43.67;;;21.40;;
19024;SDS011;9645;51.448;6.260;2024-03-07T09:03:39;44.97;;;22.73;;
19024;SDS011;9645;51.448;6.260;2024-03-07T09:06:07;42.27;;;22.80;;
19024;SDS011;9645;51.448;6.260;2024-03-07T09:08:38;42.77;;;21.20;;
19024;SDS011;9645;51.448;6.260;2024-03-07T09:11:05;36.53;;;20.73;;
19024;SDS011;9645;51.448;6.260;2024-03-07T09:13:32;46.77;;;22.80;;
19024;SDS011;9645;51.448;6.260;2024-03-07T09:16:00;43.37;;;20.67;;
19024;SDS011;9645;51.448;6.260;2024-03-07T09:18:30;41.13;;;22.50;;
19024;SDS011;9645;51.448;6.260;2024-03-07T09:20:57;40.40;;;21.87;;
19024;SDS011;9645;51.448;6.260;2024-03-07T09:23:25;52.60;;;20.73;;
19024;SDS011;9645;51.448;6.260;2024-03-07T09:25:52;42.23;;;20.90;;
19024;SDS011;9645;51.448;6.260;2024-03-07T09:28:19;44.23;;;23.00;;
19024;SDS011;9645;51.448;6.260;2024-03-07T09:30:46;39.17;;;21.93;;
19024;SDS011;9645;51.448;6.260;2024-03-07T09:33:14;45.03;;;23.20;;
19024;SDS011;9645;51.448;6.260;2024-03-07T09:35:44;42.00;;;20.70;;
19024;SDS011;9645;51.448;6.260;2024-03-07T09:38:13;35.37;;;20.87;;
19024;SDS011;9645;51.448;6.260;2024-03-07T09:40:42;38.40;;;19.80;;
19024;SDS011;9645;51.448;6.260;2024-03-07T09:43:09;35.63;;;19.37;;
19024;SDS011;9645;51.448;6.260;2024-03-07T09:45:39;34.10;;;19.83;;
19024;SDS011;9645;51.448;6.260;2024-03-07T09:48:08;33.77;;;19.00;;
19024;SDS011;9645;51.448;6.260;2024-03-07T09:50:36;34.97;;;19.60;;
19024;SDS011;9645;51.448;6.260;2024-03-07T09:53:03;34.20;;;18.80;;
19024;SDS011;9645;51.448;6.260;2024-03-07T09:55:31;35.43;;;18.17;;
19024;SDS011;9645;51.448;6.260;2024-03-07T09:58:00;37.73;;;19.47;;
19024;SDS011;9645;51.448;6.260;2024-03-07T10:00:27;31.10;;;18.17;;
19024;SDS011;9645;51.448;6.260;2024-03-07T10:02:56;32.77;;;17.60;;
19024;SDS011;9645;51.448;6.260;2024-03-07T10:05:26;37.50;;;18.10;;
19024;SDS011;9645;51.448;6.260;2024-03-07T10:07:54;33.93;;;18.60;;
19024;SDS011;9645;51.448;6.260;2024-03-07T10:10:21;29.27;;;16.57;;
19024;SDS011;9645;51.448;6.260;2024-03-07T10:12:49;28.90;;;17.43;;
19024;SDS011;9645;51.448;6.260;2024-03-07T10:15:19;32.23;;;18.07;;
19024;SDS011;9645;51.448;6.260;2024-03-07T10:17:47;29.43;;;16.80;;
19024;SDS011;9645;51.448;6.260;2024-03-07T10:20:18;29.13;;;17.07;;
19024;SDS011;9645;51.448;6.260;2024-03-07T10:22:47;31.83;;;16.43;;
19024;SDS011;9645;51.448;6.260;2024-03-07T10:25:16;28.30;;;14.10;;
19024;SDS011;9645;51.448;6.260;2024-03-07T10:27:45;24.20;;;14.50;;
19024;SDS011;9645;51.448;6.260;2024-03-07T10:30:14;27.43;;;15.60;;
19024;SDS011;9645;51.448;6.260;2024-03-07T10:32:47;29.07;;;16.60;;
19024;SDS011;9645;51.448;6.260;2024-03-07T10:35:20;28.30;;;15.10;;
19024;SDS011;9645;51.448;6.260;2024-03-07T10:37:49;28.87;;;16.00;;
19024;SDS011;9645;51.448;6.260;2024-03-07T10:40:16;31.53;;;16.07;;
19024;SDS011;9645;51.448;6.260;2024-03-07T10:42:45;29.87;;;14.87;;
19024;SDS011;9645;51.448;6.260;2024-03-07T10:45:17;33.00;;;15.00;;
19024;SDS011;9645;51.448;6.260;2024-03-07T10:47:48;39.57;;;16.40;;
19024;SDS011;9645;51.448;6.260;2024-03-07T10:50:19;32.73;;;15.20;;
19024;SDS011;9645;51.448;6.260;2024-03-07T10:53:07;36.37;;;14.90;;
19024;SDS011;9645;51.448;6.260;2024-03-07T10:55:40;37.77;;;14.10;;
19024;SDS011;9645;51.448;6.260;2024-03-07T10:58:18;32.60;;;14.47;;
19024;SDS011;9645;51.448;6.260;2024-03-07T11:01:04;35.27;;;14.50;;
19024;SDS011;9645;51.448;6.260;2024-03-07T11:03:34;30.70;;;13.30;;
19024;SDS011;9645;51.448;6.260;2024-03-07T11:06:01;30.53;;;12.90;;
19024;SDS011;9645;51.448;6.260;2024-03-07T11:08:31;32.53;;;13.60;;
19024;SDS011;9645;51.448;6.260;2024-03-07T11:10:59;29.73;;;14.03;;
19024;SDS011;9645;51.448;6.260;2024-03-07T11:13:26;32.70;;;13.87;;
19024;SDS011;9645;51.448;6.260;2024-03-07T11:15:55;37.97;;;16.20;;
19024;SDS011;9645;51.448;6.260;2024-03-07T11:18:25;31.57;;;15.83;;
19024;SDS011;9645;51.448;6.260;2024-03-07T11:20:54;36.97;;;15.50;;
19024;SDS011;9645;51.448;6.260;2024-03-07T11:23:26;29.90;;;15.70;;
19024;SDS011;9645;51.448;6.260;2024-03-07T11:25:55;31.00;;;15.60;;
19024;SDS011;9645;51.448;6.260;2024-03-07T11:28:32;24.67;;;14.20;;
19024;SDS011;9645;51.448;6.260;2024-03-07T11:36:44;31.03;;;15.07;;
19024;SDS011;9645;51.448;6.260;2024-03-07T11:41:56;29.53;;;14.13;;
19024;SDS011;9645;51.448;6.260;2024-03-07T11:44:23;29.07;;;15.33;;
19024;SDS011;9645;51.448;6.260;2024-03-07T11:46:50;26.60;;;14.37;;
19024;SDS011;9645;51.448;6.260;2024-03-07T11:49:17;27.37;;;14.83;;
19024;SDS011;9645;51.448;6.260;2024-03-07T11:51:47;28.00;;;15.63;;
19024;SDS011;9645;51.448;6.260;2024-03-07T11:54:16;27.77;;;14.80;;
19024;SDS011;9645;51.448;6.260;2024-03-07T11:56:49;27.30;;;14.90;;
19024;SDS011;9645;51.448;6.260;2024-03-07T11:59:16;28.53;;;15.13;;
19024;SDS011;9645;51.448;6.260;2024-03-07T12:01:43;36.67;;;16.07;;
19024;SDS011;9645;51.448;6.260;2024-03-07T12:04:10;27.17;;;14.47;;
19024;SDS011;9645;51.448;6.260;2024-03-07T12:06:41;31.97;;;16.80;;
19024;SDS011;9645;51.448;6.260;2024-03-07T12:09:18;28.57;;;15.30;;
19024;SDS011;9645;51.448;6.260;2024-03-07T12:11:49;31.60;;;16.80;;
19024;SDS011;9645;51.448;6.260;2024-03-07T12:14:18;29.50;;;16.60;;
19024;SDS011;9645;51.448;6.260;2024-03-07T12:16:45;31.23;;;16.30;;
19024;SDS011;9645;51.448;6.260;2024-03-07T12:19:12;31.90;;;14.80;;
19024;SDS011;9645;51.448;6.260;2024-03-07T12:21:42;32.23;;;15.63;;
19024;SDS011;9645;51.448;6.260;2024-03-07T12:24:14;26.27;;;14.60;;
19024;SDS011;9645;51.448;6.260;2024-03-07T12:26:41;30.60;;;14.87;;
19024;SDS011;9645;51.448;6.260;2024-03-07T12:29:08;30.60;;;16.70;;
19024;SDS011;9645;51.448;6.260;2024-03-07T12:31:37;27.77;;;15.70;;
19024;SDS011;9645;51.448;6.260;2024-03-07T12:34:04;32.03;;;15.23;;
19024;SDS011;9645;51.448;6.260;2024-03-07T12:36:34;33.27;;;16.00;;
19024;SDS011;9645;51.448;6.260;2024-03-07T12:39:20;31.13;;;15.47;;
19024;SDS011;9645;51.448;6.260;2024-03-07T12:41:55;35.97;;;15.33;;
19024;SDS011;9645;51.448;6.260;2024-03-07T12:44:22;26.70;;;15.37;;
19024;SDS011;9645;51.448;6.260;2024-03-07T12:46:51;27.47;;;14.70;;
19024;SDS011;9645;51.448;6.260;2024-03-07T12:49:21;28.67;;;16.23;;
19024;SDS011;9645;51.448;6.260;2024-03-07T12:51:52;28.40;;;15.17;;
19024;SDS011;9645;51.448;6.260;2024-03-07T12:54:19;43.03;;;16.97;;
19024;SDS011;9645;51.448;6.260;2024-03-07T12:56:49;30.23;;;15.43;;
19024;SDS011;9645;51.448;6.260;2024-03-07T12:59:16;35.97;;;16.33;;
19024;SDS011;9645;51.448;6.260;2024-03-07T13:01:49;35.50;;;16.10;;
19024;SDS011;9645;51.448;6.260;2024-03-07T13:04:16;30.83;;;15.70;;
19024;SDS011;9645;51.448;6.260;2024-03-07T13:06:43;30.87;;;15.50;;
19024;SDS011;9645;51.448;6.260;2024-03-07T13:09:12;37.17;;;16.77;;
19024;SDS011;9645;51.448;6.260;2024-03-07T13:11:39;33.10;;;16.50;;
19024;SDS011;9645;51.448;6.260;2024-03-07T13:14:12;35.30;;;16.77;;
19024;SDS011;9645;51.448;6.260;2024-03-07T13:16:39;38.67;;;15.60;;
19024;SDS011;9645;51.448;6.260;2024-03-07T13:19:08;36.33;;;17.27;;
19024;SDS011;9645;51.448;6.260;2024-03-07T13:21:37;36.40;;;16.97;;
19024;SDS011;9645;51.448;6.260;2024-03-07T13:24:04;34.93;;;16.47;;
19024;SDS011;9645;51.448;6.260;2024-03-07T13:26:33;38.97;;;16.47;;
19024;SDS011;9645;51.448;6.260;2024-03-07T13:29:01;42.20;;;16.73;;
19024;SDS011;9645;51.448;6.260;2024-03-07T13:31:30;36.73;;;17.73;;
19024;SDS011;9645;51.448;6.260;2024-03-07T13:33:58;39.60;;;17.13;;
19024;SDS011;9645;51.448;6.260;2024-03-07T13:36:26;37.13;;;16.90;;
19024;SDS011;9645;51.448;6.260;2024-03-07T13:38:54;43.63;;;16.80;;
19024;SDS011;9645;51.448;6.260;2024-03-07T13:41:23;34.20;;;16.10;;
19024;SDS011;9645;51.448;6.260;2024-03-07T13:43:53;36.07;;;16.80;;
19024;SDS011;9645;51.448;6.260;2024-03-07T13:46:21;39.70;;;16.83;;
19024;SDS011;9645;51.448;6.260;2024-03-07T13:48:50;48.30;;;18.30;;
19024;SDS011;9645;51.448;6.260;2024-03-07T13:51:17;44.80;;;18.93;;
19024;SDS011;9645;51.448;6.260;2024-03-07T13:53:45;39.53;;;19.00;;
19024;SDS011;9645;51.448;6.260;2024-03-07T13:56:33;49.70;;;18.13;;
19024;SDS011;9645;51.448;6.260;2024-03-07T14:02:16;43.17;;;19.50;;
19024;SDS011;9645;51.448;6.260;2024-03-07T14:08:19;37.73;;;18.20;;
19024;SDS011;9645;51.448;6.260;2024-03-07T14:11:09;43.67;;;20.70;;
19024;SDS011;9645;51.448;6.260;2024-03-07T14:14:12;34.57;;;17.13;;
19024;SDS011;9645;51.448;6.260;2024-03-07T14:16:58;46.67;;;18.43;;
19024;SDS011;9645;51.448;6.260;2024-03-07T14:20:05;39.53;;;19.00;;
19024;SDS011;9645;51.448;6.260;2024-03-07T14:23:04;40.03;;;19.80;;
19024;SDS011;9645;51.448;6.260;2024-03-07T14:25:49;39.77;;;17.93;;
19024;SDS011;9645;51.448;6.260;2024-03-07T14:31:31;41.43;;;18.63;;
19024;SDS011;9645;51.448;6.260;2024-03-07T14:34:02;40.20;;;18.67;;
19024;SDS011;9645;51.448;6.260;2024-03-07T14:36:38;39.65;;;18.05;;
19024;SDS011;9645;51.448;6.260;2024-03-07T14:39:12;44.83;;;18.90;;
19024;SDS011;9645;51.448;6.260;2024-03-07T14:41:45;39.10;;;18.20;;
19024;SDS011;9645;51.448;6.260;2024-03-07T14:44:16;43.95;;;18.80;;
19024;SDS011;9645;51.448;6.260;2024-03-07T14:46:44;39.53;;;18.00;;
19024;SDS011;9645;51.448;6.260;2024-03-07T14:49:15;39.70;;;18.33;;
19024;SDS011;9645;51.448;6.260;2024-03-07T14:51:44;40.78;;;18.73;;
19024;SDS011;9645;51.448;6.260;2024-03-07T14:54:15;42.10;;;18.08;;
19024;SDS011;9645;51.448;6.260;2024-03-07T14:56:42;38.50;;;17.95;;
19024;SDS011;9645;51.448;6.260;2024-03-07T14:59:09;35.47;;;16.63;;
19024;SDS011;9645;51.448;6.260;2024-03-07T15:01:37;35.13;;;16.83;;